sensor_id;sensor_type;location;lat;lon;timestamp;P1;durP1;ratioP1;P2;durP2;ratioP2
53899;SDS011;40509;32.858;-116.858;2023-04-30T00:01:34;3.15;;;2.47;;
53899;SDS011;40509;32.858;-116.858;2023-04-30T00:04:02;3.00;;;2.42;;
53899;SDS011;40509;32.858;-116.858;2023-04-30T00:06:29;2.80;;;2.33;;
53899;SDS011;40509;32.858;-116.858;2023-04-30T00:08:56;2.80;;;2.42;;
53899;SDS011;40509;32.858;-116.858;2023-04-30T00:11:24;2.85;;;2.40;;
53899;SDS011;40509;32.858;-116.858;2023-04-30T00:13:51;4.82;;;2.40;;
53899;SDS011;40509;32.858;-116.858;2023-04-30T00:16:19;2.60;;;2.40;;
53899;SDS011;40509;32.858;-116.858;2023-04-30T00:18:46;2.80;;;1.70;;
53899;SDS011;40509;32.858;-116.858;2023-04-30T00:21:14;2.85;;;2.42;;
53899;SDS011;40509;32.858;-116.858;2023-04-30T00:23:41;3.35;;;2.28;;
53899;SDS011;40509;32.858;-116.858;2023-04-30T00:26:08;2.67;;;2.15;;
53899;SDS011;40509;32.858;-116.858;2023-04-30T00:28:36;2.30;;;2.10;;
53899;SDS011;40509;32.858;-116.858;2023-04-30T00:31:03;5.53;;;2.85;;
53899;SDS011;40509;32.858;-116.858;2023-04-30T00:33:34;2.40;;;2.20;;
53899;SDS011;40509;32.858;-116.858;2023-04-30T00:36:02;1.80;;;1.70;;
53899;SDS011;40509;32.858;-116.858;2023-04-30T00:38:29;4.00;;;2.58;;
53899;SDS011;40509;32.858;-116.858;2023-04-30T00:40:57;2.00;;;1.80;;
53899;SDS011;40509;32.858;-116.858;2023-04-30T00:43:24;2.58;;;2.38;;
53899;SDS011;40509;32.858;-116.858;2023-04-30T00:45:52;5.20;;;2.75;;
53899;SDS011;40509;32.858;-116.858;2023-04-30T00:48:19;4.22;;;2.05;;
53899;SDS011;40509;32.858;-116.858;2023-04-30T00:50:47;2.53;;;2.33;;
53899;SDS011;40509;32.858;-116.858;2023-04-30T00:53:14;2.55;;;2.35;;
53899;SDS011;40509;32.858;-116.858;2023-04-30T00:55:42;2.85;;;2.45;;
53899;SDS011;40509;32.858;-116.858;2023-04-30T00:58:10;6.60;;;3.33;;
53899;SDS011;40509;32.858;-116.858;2023-04-30T01:00:37;2.75;;;2.20;;
53899;SDS011;40509;32.858;-116.858;2023-04-30T01:03:08;6.07;;;3.00;;
53899;SDS011;40509;32.858;-116.858;2023-04-30T01:05:36;3.47;;;3.17;;
53899;SDS011;40509;32.858;-116.858;2023-04-30T01:08:03;3.47;;;3.10;;
53899;SDS011;40509;32.858;-116.858;2023-04-30T01:10:31;7.00;;;4.80;;
53899;SDS011;40509;32.858;-116.858;2023-04-30T01:13:10;9.68;;;5.35;;
53899;SDS011;40509;32.858;-116.858;2023-04-30T01:15:48;5.38;;;4.50;;
53899;SDS011;40509;32.858;-116.858;2023-04-30T01:18:28;5.20;;;4.45;;
53899;SDS011;40509;32.858;-116.858;2023-04-30T01:21:01;10.07;;;4.38;;
53899;SDS011;40509;32.858;-116.858;2023-04-30T01:26:06;8.45;;;4.30;;
53899;SDS011;40509;32.858;-116.858;2023-04-30T01:28:41;5.70;;;4.13;;
53899;SDS011;40509;32.858;-116.858;2023-04-30T01:31:14;5.38;;;4.80;;
53899;SDS011;40509;32.858;-116.858;2023-04-30T01:33:43;6.18;;;4.38;;
53899;SDS011;40509;32.858;-116.858;2023-04-30T01:39:37;9.90;;;4.85;;
53899;SDS011;40509;32.858;-116.858;2023-04-30T01:42:32;7.95;;;3.50;;
53899;SDS011;40509;32.858;-116.858;2023-04-30T01:45:12;4.57;;;3.88;;
53899;SDS011;40509;32.858;-116.858;2023-04-30T01:47:45;7.00;;;3.92;;
53899;SDS011;40509;32.858;-116.858;2023-04-30T01:50:33;6.32;;;4.07;;
53899;SDS011;40509;32.858;-116.858;2023-04-30T01:53:21;6.45;;;4.32;;
53899;SDS011;40509;32.858;-116.858;2023-04-30T01:55:58;5.65;;;4.45;;
53899;SDS011;40509;32.858;-116.858;2023-04-30T01:58:30;4.05;;;3.65;;
53899;SDS011;40509;32.858;-116.858;2023-04-30T02:00:58;20.30;;;5.55;;
53899;SDS011;40509;32.858;-116.858;2023-04-30T02:03:26;5.47;;;3.60;;
53899;SDS011;40509;32.858;-116.858;2023-04-30T02:05:53;4.07;;;3.45;;
53899;SDS011;40509;32.858;-116.858;2023-04-30T02:08:20;7.95;;;4.53;;
53899;SDS011;40509;32.858;-116.858;2023-04-30T02:10:48;11.27;;;4.13;;
53899;SDS011;40509;32.858;-116.858;2023-04-30T02:13:15;3.53;;;3.22;;
53899;SDS011;40509;32.858;-116.858;2023-04-30T02:15:43;13.45;;;3.83;;
53899;SDS011;40509;32.858;-116.858;2023-04-30T02:18:10;4.43;;;4.03;;
53899;SDS011;40509;32.858;-116.858;2023-04-30T02:20:37;7.25;;;4.60;;
53899;SDS011;40509;32.858;-116.858;2023-04-30T02:23:04;7.25;;;4.05;;
53899;SDS011;40509;32.858;-116.858;2023-04-30T02:25:34;6.88;;;3.95;;
53899;SDS011;40509;32.858;-116.858;2023-04-30T02:28:03;4.20;;;2.90;;
53899;SDS011;40509;32.858;-116.858;2023-04-30T02:30:30;9.45;;;3.70;;
53899;SDS011;40509;32.858;-116.858;2023-04-30T02:32:58;5.95;;;4.13;;
53899;SDS011;40509;32.858;-116.858;2023-04-30T02:35:26;10.52;;;4.43;;
53899;SDS011;40509;32.858;-116.858;2023-04-30T02:37:53;8.07;;;4.07;;
53899;SDS011;40509;32.858;-116.858;2023-04-30T02:40:20;4.55;;;3.10;;
53899;SDS011;40509;32.858;-116.858;2023-04-30T02:42:47;4.13;;;3.35;;
53899;SDS011;40509;32.858;-116.858;2023-04-30T02:45:15;11.60;;;3.38;;
53899;SDS011;40509;32.858;-116.858;2023-04-30T02:47:42;4.40;;;3.72;;
53899;SDS011;40509;32.858;-116.858;2023-04-30T02:50:09;6.00;;;3.88;;
53899;SDS011;40509;32.858;-116.858;2023-04-30T02:52:37;6.82;;;3.95;;
53899;SDS011;40509;32.858;-116.858;2023-04-30T02:55:05;7.63;;;4.13;;
53899;SDS011;40509;32.858;-116.858;2023-04-30T02:57:32;10.70;;;4.72;;
53899;SDS011;40509;32.858;-116.858;2023-04-30T03:00:00;10.93;;;4.45;;
53899;SDS011;40509;32.858;-116.858;2023-04-30T03:02:28;6.68;;;4.35;;
53899;SDS011;40509;32.858;-116.858;2023-04-30T03:04:55;5.85;;;4.57;;
53899;SDS011;40509;32.858;-116.858;2023-04-30T03:07:22;13.35;;;5.47;;
53899;SDS011;40509;32.858;-116.858;2023-04-30T03:09:49;5.97;;;4.30;;
53899;SDS011;40509;32.858;-116.858;2023-04-30T03:12:17;7.00;;;3.83;;
53899;SDS011;40509;32.858;-116.858;2023-04-30T03:14:44;4.32;;;3.83;;
53899;SDS011;40509;32.858;-116.858;2023-04-30T03:17:12;10.05;;;4.22;;
53899;SDS011;40509;32.858;-116.858;2023-04-30T03:19:40;8.57;;;3.78;;
53899;SDS011;40509;32.858;-116.858;2023-04-30T03:22:07;8.10;;;3.92;;
53899;SDS011;40509;32.858;-116.858;2023-04-30T03:24:34;5.30;;;4.15;;
53899;SDS011;40509;32.858;-116.858;2023-04-30T03:27:01;9.88;;;4.55;;
53899;SDS011;40509;32.858;-116.858;2023-04-30T03:29:29;9.23;;;4.40;;
53899;SDS011;40509;32.858;-116.858;2023-04-30T03:31:56;4.50;;;3.95;;
53899;SDS011;40509;32.858;-116.858;2023-04-30T03:34:23;4.40;;;4.00;;
53899;SDS011;40509;32.858;-116.858;2023-04-30T03:36:51;5.75;;;3.20;;
53899;SDS011;40509;32.858;-116.858;2023-04-30T03:39:18;12.65;;;4.00;;
53899;SDS011;40509;32.858;-116.858;2023-04-30T03:41:46;7.88;;;4.28;;
53899;SDS011;40509;32.858;-116.858;2023-04-30T03:44:13;6.43;;;3.40;;
53899;SDS011;40509;32.858;-116.858;2023-04-30T03:46:41;5.32;;;3.50;;
53899;SDS011;40509;32.858;-116.858;2023-04-30T03:49:09;7.32;;;4.68;;
53899;SDS011;40509;32.858;-116.858;2023-04-30T03:51:37;7.00;;;3.72;;
53899;SDS011;40509;32.858;-116.858;2023-04-30T03:54:07;8.57;;;4.35;;
53899;SDS011;40509;32.858;-116.858;2023-04-30T03:56:35;11.30;;;4.50;;
53899;SDS011;40509;32.858;-116.858;2023-04-30T03:59:04;11.98;;;3.63;;
53899;SDS011;40509;32.858;-116.858;2023-04-30T04:01:32;6.95;;;3.63;;
53899;SDS011;40509;32.858;-116.858;2023-04-30T04:03:59;4.63;;;3.22;;
53899;SDS011;40509;32.858;-116.858;2023-04-30T04:06:26;5.43;;;4.28;;
53899;SDS011;40509;32.858;-116.858;2023-04-30T04:08:54;8.40;;;3.70;;
53899;SDS011;40509;32.858;-116.858;2023-04-30T04:11:21;5.53;;;4.15;;
53899;SDS011;40509;32.858;-116.858;2023-04-30T04:13:50;4.03;;;3.08;;
53899;SDS011;40509;32.858;-116.858;2023-04-30T04:16:17;3.85;;;3.33;;
53899;SDS011;40509;32.858;-116.858;2023-04-30T04:18:44;3.65;;;3.35;;
53899;SDS011;40509;32.858;-116.858;2023-04-30T04:21:11;3.88;;;3.58;;
53899;SDS011;40509;32.858;-116.858;2023-04-30T04:23:39;5.22;;;3.85;;
53899;SDS011;40509;32.858;-116.858;2023-04-30T04:26:06;4.68;;;3.38;;
53899;SDS011;40509;32.858;-116.858;2023-04-30T04:28:34;4.10;;;3.45;;
53899;SDS011;40509;32.858;-116.858;2023-04-30T04:31:01;4.38;;;3.78;;
53899;SDS011;40509;32.858;-116.858;2023-04-30T04:33:29;3.97;;;3.13;;
53899;SDS011;40509;32.858;-116.858;2023-04-30T04:35:56;3.58;;;3.28;;
53899;SDS011;40509;32.858;-116.858;2023-04-30T04:38:24;3.53;;;3.22;;
53899;SDS011;40509;32.858;-116.858;2023-04-30T04:40:52;3.15;;;2.85;;
53899;SDS011;40509;32.858;-116.858;2023-04-30T04:43:20;6.75;;;4.35;;
53899;SDS011;40509;32.858;-116.858;2023-04-30T04:45:48;3.83;;;3.35;;
53899;SDS011;40509;32.858;-116.858;2023-04-30T04:48:17;4.97;;;3.42;;
53899;SDS011;40509;32.858;-116.858;2023-04-30T04:50:44;3.80;;;3.50;;
53899;SDS011;40509;32.858;-116.858;2023-04-30T04:53:12;2.90;;;2.42;;
53899;SDS011;40509;32.858;-116.858;2023-04-30T04:55:39;2.85;;;2.58;;
53899;SDS011;40509;32.858;-116.858;2023-04-30T04:58:06;6.05;;;2.80;;
53899;SDS011;40509;32.858;-116.858;2023-04-30T05:00:33;4.35;;;2.92;;
53899;SDS011;40509;32.858;-116.858;2023-04-30T05:03:00;4.00;;;3.45;;
53899;SDS011;40509;32.858;-116.858;2023-04-30T05:05:28;4.03;;;3.20;;
53899;SDS011;40509;32.858;-116.858;2023-04-30T05:07:55;4.43;;;3.13;;
53899;SDS011;40509;32.858;-116.858;2023-04-30T05:10:23;3.10;;;2.88;;
53899;SDS011;40509;32.858;-116.858;2023-04-30T05:12:51;5.97;;;4.35;;
53899;SDS011;40509;32.858;-116.858;2023-04-30T05:15:19;3.33;;;3.03;;
53899;SDS011;40509;32.858;-116.858;2023-04-30T05:17:46;5.05;;;3.47;;
53899;SDS011;40509;32.858;-116.858;2023-04-30T05:20:13;5.18;;;3.35;;
53899;SDS011;40509;32.858;-116.858;2023-04-30T05:22:41;5.28;;;3.30;;
53899;SDS011;40509;32.858;-116.858;2023-04-30T05:25:09;9.85;;;4.05;;
53899;SDS011;40509;32.858;-116.858;2023-04-30T05:27:36;6.13;;;4.10;;
53899;SDS011;40509;32.858;-116.858;2023-04-30T05:30:04;5.53;;;3.10;;
53899;SDS011;40509;32.858;-116.858;2023-04-30T05:32:32;4.32;;;3.30;;
53899;SDS011;40509;32.858;-116.858;2023-04-30T05:35:00;7.28;;;3.88;;
53899;SDS011;40509;32.858;-116.858;2023-04-30T05:37:27;4.30;;;3.30;;
53899;SDS011;40509;32.858;-116.858;2023-04-30T05:39:54;3.65;;;3.08;;
53899;SDS011;40509;32.858;-116.858;2023-04-30T05:42:22;4.13;;;3.00;;
53899;SDS011;40509;32.858;-116.858;2023-04-30T05:44:49;4.28;;;3.63;;
53899;SDS011;40509;32.858;-116.858;2023-04-30T05:47:17;3.63;;;3.25;;
53899;SDS011;40509;32.858;-116.858;2023-04-30T05:49:44;3.47;;;3.17;;
53899;SDS011;40509;32.858;-116.858;2023-04-30T05:52:12;2.72;;;2.53;;
53899;SDS011;40509;32.858;-116.858;2023-04-30T05:54:40;3.28;;;2.65;;
53899;SDS011;40509;32.858;-116.858;2023-04-30T05:57:07;3.78;;;2.45;;
53899;SDS011;40509;32.858;-116.858;2023-04-30T05:59:35;4.25;;;3.20;;
53899;SDS011;40509;32.858;-116.858;2023-04-30T06:02:02;5.22;;;2.75;;
53899;SDS011;40509;32.858;-116.858;2023-04-30T06:04:30;6.22;;;3.45;;
53899;SDS011;40509;32.858;-116.858;2023-04-30T06:06:57;5.45;;;3.20;;
53899;SDS011;40509;32.858;-116.858;2023-04-30T06:09:24;3.70;;;2.88;;
53899;SDS011;40509;32.858;-116.858;2023-04-30T06:11:52;3.72;;;2.80;;
53899;SDS011;40509;32.858;-116.858;2023-04-30T06:14:20;3.75;;;3.05;;
53899;SDS011;40509;32.858;-116.858;2023-04-30T06:16:48;3.70;;;3.38;;
53899;SDS011;40509;32.858;-116.858;2023-04-30T06:19:16;3.10;;;2.80;;
53899;SDS011;40509;32.858;-116.858;2023-04-30T06:21:43;4.13;;;3.13;;
53899;SDS011;40509;32.858;-116.858;2023-04-30T06:24:11;4.38;;;3.00;;
53899;SDS011;40509;32.858;-116.858;2023-04-30T06:26:38;5.05;;;3.13;;
53899;SDS011;40509;32.858;-116.858;2023-04-30T06:29:05;4.97;;;3.20;;
53899;SDS011;40509;32.858;-116.858;2023-04-30T06:31:32;3.67;;;3.00;;
53899;SDS011;40509;32.858;-116.858;2023-04-30T06:33:59;3.38;;;3.05;;
53899;SDS011;40509;32.858;-116.858;2023-04-30T06:36:27;3.03;;;2.47;;
53899;SDS011;40509;32.858;-116.858;2023-04-30T06:38:54;4.55;;;2.70;;
53899;SDS011;40509;32.858;-116.858;2023-04-30T06:41:21;5.72;;;3.45;;
53899;SDS011;40509;32.858;-116.858;2023-04-30T06:43:49;6.32;;;2.88;;
53899;SDS011;40509;32.858;-116.858;2023-04-30T06:46:16;3.45;;;2.92;;
53899;SDS011;40509;32.858;-116.858;2023-04-30T06:48:43;3.95;;;3.10;;
53899;SDS011;40509;32.858;-116.858;2023-04-30T06:51:10;4.55;;;3.45;;
53899;SDS011;40509;32.858;-116.858;2023-04-30T06:53:38;4.57;;;3.08;;
53899;SDS011;40509;32.858;-116.858;2023-04-30T06:56:05;3.78;;;3.38;;
53899;SDS011;40509;32.858;-116.858;2023-04-30T06:58:33;4.03;;;2.38;;
53899;SDS011;40509;32.858;-116.858;2023-04-30T07:01:00;3.22;;;2.92;;
53899;SDS011;40509;32.858;-116.858;2023-04-30T07:03:27;3.72;;;2.88;;
53899;SDS011;40509;32.858;-116.858;2023-04-30T07:05:55;2.97;;;2.67;;
53899;SDS011;40509;32.858;-116.858;2023-04-30T07:08:22;3.00;;;2.45;;
53899;SDS011;40509;32.858;-116.858;2023-04-30T07:10:50;3.42;;;2.80;;
53899;SDS011;40509;32.858;-116.858;2023-04-30T07:13:17;4.38;;;3.22;;
53899;SDS011;40509;32.858;-116.858;2023-04-30T07:15:44;4.18;;;2.75;;
53899;SDS011;40509;32.858;-116.858;2023-04-30T07:18:12;4.28;;;2.58;;
53899;SDS011;40509;32.858;-116.858;2023-04-30T07:20:39;2.53;;;2.05;;
53899;SDS011;40509;32.858;-116.858;2023-04-30T07:23:06;6.82;;;2.85;;
53899;SDS011;40509;32.858;-116.858;2023-04-30T07:25:33;2.83;;;2.22;;
53899;SDS011;40509;32.858;-116.858;2023-04-30T07:28:01;3.97;;;3.58;;
53899;SDS011;40509;32.858;-116.858;2023-04-30T07:30:28;3.35;;;2.85;;
53899;SDS011;40509;32.858;-116.858;2023-04-30T07:32:55;2.28;;;2.08;;
53899;SDS011;40509;32.858;-116.858;2023-04-30T07:35:22;3.72;;;3.10;;
53899;SDS011;40509;32.858;-116.858;2023-04-30T07:37:49;3.17;;;2.72;;
53899;SDS011;40509;32.858;-116.858;2023-04-30T07:40:17;2.55;;;2.13;;
53899;SDS011;40509;32.858;-116.858;2023-04-30T07:42:44;4.15;;;3.22;;
53899;SDS011;40509;32.858;-116.858;2023-04-30T07:45:11;2.50;;;2.30;;
53899;SDS011;40509;32.858;-116.858;2023-04-30T07:47:39;3.38;;;2.38;;
53899;SDS011;40509;32.858;-116.858;2023-04-30T07:50:06;4.18;;;2.38;;
53899;SDS011;40509;32.858;-116.858;2023-04-30T07:52:34;2.97;;;2.67;;
53899;SDS011;40509;32.858;-116.858;2023-04-30T07:55:01;3.67;;;2.85;;
53899;SDS011;40509;32.858;-116.858;2023-04-30T07:57:29;4.07;;;3.05;;
53899;SDS011;40509;32.858;-116.858;2023-04-30T07:59:56;3.90;;;2.58;;
53899;SDS011;40509;32.858;-116.858;2023-04-30T08:02:23;2.47;;;2.15;;
53899;SDS011;40509;32.858;-116.858;2023-04-30T08:04:50;3.10;;;2.80;;
53899;SDS011;40509;32.858;-116.858;2023-04-30T08:07:17;4.85;;;2.90;;
53899;SDS011;40509;32.858;-116.858;2023-04-30T08:09:46;3.00;;;2.42;;
53899;SDS011;40509;32.858;-116.858;2023-04-30T08:12:13;2.67;;;2.47;;
53899;SDS011;40509;32.858;-116.858;2023-04-30T08:14:40;2.70;;;2.42;;
53899;SDS011;40509;32.858;-116.858;2023-04-30T08:17:07;3.05;;;2.60;;
53899;SDS011;40509;32.858;-116.858;2023-04-30T08:19:35;2.42;;;2.10;;
53899;SDS011;40509;32.858;-116.858;2023-04-30T08:22:02;3.25;;;2.78;;
53899;SDS011;40509;32.858;-116.858;2023-04-30T08:24:29;2.55;;;2.35;;
53899;SDS011;40509;32.858;-116.858;2023-04-30T08:26:56;3.63;;;2.72;;
53899;SDS011;40509;32.858;-116.858;2023-04-30T08:29:25;5.95;;;2.95;;
53899;SDS011;40509;32.858;-116.858;2023-04-30T08:31:53;4.78;;;2.53;;
53899;SDS011;40509;32.858;-116.858;2023-04-30T08:34:20;2.40;;;2.20;;
53899;SDS011;40509;32.858;-116.858;2023-04-30T08:36:47;2.03;;;1.85;;
53899;SDS011;40509;32.858;-116.858;2023-04-30T08:39:15;2.97;;;2.65;;
53899;SDS011;40509;32.858;-116.858;2023-04-30T08:41:42;3.40;;;3.08;;
53899;SDS011;40509;32.858;-116.858;2023-04-30T08:44:12;3.00;;;2.80;;
53899;SDS011;40509;32.858;-116.858;2023-04-30T08:46:39;4.30;;;2.42;;
53899;SDS011;40509;32.858;-116.858;2023-04-30T08:49:09;2.60;;;2.08;;
53899;SDS011;40509;32.858;-116.858;2023-04-30T08:51:37;3.00;;;2.63;;
53899;SDS011;40509;32.858;-116.858;2023-04-30T08:54:04;2.95;;;2.30;;
53899;SDS011;40509;32.858;-116.858;2023-04-30T08:56:31;3.95;;;2.30;;
53899;SDS011;40509;32.858;-116.858;2023-04-30T08:59:00;2.22;;;2.03;;
53899;SDS011;40509;32.858;-116.858;2023-04-30T09:01:27;3.55;;;3.25;;
53899;SDS011;40509;32.858;-116.858;2023-04-30T09:03:56;2.72;;;2.53;;
53899;SDS011;40509;32.858;-116.858;2023-04-30T09:06:23;2.97;;;2.10;;
53899;SDS011;40509;32.858;-116.858;2023-04-30T09:08:50;3.13;;;2.25;;
53899;SDS011;40509;32.858;-116.858;2023-04-30T09:11:23;3.80;;;2.55;;
53899;SDS011;40509;32.858;-116.858;2023-04-30T09:13:56;4.53;;;3.00;;
53899;SDS011;40509;32.858;-116.858;2023-04-30T09:16:25;3.28;;;2.97;;
53899;SDS011;40509;32.858;-116.858;2023-04-30T09:18:58;2.65;;;2.45;;
53899;SDS011;40509;32.858;-116.858;2023-04-30T09:21:29;3.10;;;2.67;;
53899;SDS011;40509;32.858;-116.858;2023-04-30T09:24:03;2.85;;;2.50;;
53899;SDS011;40509;32.858;-116.858;2023-04-30T09:26:33;4.13;;;3.28;;
53899;SDS011;40509;32.858;-116.858;2023-04-30T09:29:01;3.20;;;1.92;;
53899;SDS011;40509;32.858;-116.858;2023-04-30T09:31:33;2.40;;;2.17;;
53899;SDS011;40509;32.858;-116.858;2023-04-30T09:34:05;2.15;;;1.95;;
53899;SDS011;40509;32.858;-116.858;2023-04-30T09:36:32;5.30;;;1.70;;
53899;SDS011;40509;32.858;-116.858;2023-04-30T09:39:07;2.08;;;1.88;;
53899;SDS011;40509;32.858;-116.858;2023-04-30T09:41:34;3.83;;;2.13;;
53899;SDS011;40509;32.858;-116.858;2023-04-30T09:44:01;2.67;;;2.47;;
53899;SDS011;40509;32.858;-116.858;2023-04-30T09:46:30;1.73;;;1.63;;
53899;SDS011;40509;32.858;-116.858;2023-04-30T09:48:59;2.80;;;2.30;;
53899;SDS011;40509;32.858;-116.858;2023-04-30T09:51:27;3.40;;;2.17;;
53899;SDS011;40509;32.858;-116.858;2023-04-30T09:53:56;5.20;;;2.22;;
53899;SDS011;40509;32.858;-116.858;2023-04-30T09:56:24;2.65;;;1.85;;
53899;SDS011;40509;32.858;-116.858;2023-04-30T09:58:53;2.72;;;2.38;;
53899;SDS011;40509;32.858;-116.858;2023-04-30T10:01:24;2.85;;;2.35;;
53899;SDS011;40509;32.858;-116.858;2023-04-30T10:03:54;2.20;;;1.98;;
53899;SDS011;40509;32.858;-116.858;2023-04-30T10:06:23;2.75;;;2.47;;
53899;SDS011;40509;32.858;-116.858;2023-04-30T10:08:57;2.55;;;2.15;;
53899;SDS011;40509;32.858;-116.858;2023-04-30T10:11:25;3.08;;;2.60;;
53899;SDS011;40509;32.858;-116.858;2023-04-30T10:19:11;3.40;;;2.13;;
53899;SDS011;40509;32.858;-116.858;2023-04-30T10:21:42;2.53;;;2.33;;
53899;SDS011;40509;32.858;-116.858;2023-04-30T10:24:12;2.42;;;2.22;;
53899;SDS011;40509;32.858;-116.858;2023-04-30T10:26:40;2.45;;;2.25;;
53899;SDS011;40509;32.858;-116.858;2023-04-30T10:29:09;2.83;;;2.42;;
53899;SDS011;40509;32.858;-116.858;2023-04-30T10:31:39;3.03;;;2.25;;
53899;SDS011;40509;32.858;-116.858;2023-04-30T10:34:20;3.15;;;2.75;;
53899;SDS011;40509;32.858;-116.858;2023-04-30T10:37:06;2.58;;;2.38;;
53899;SDS011;40509;32.858;-116.858;2023-04-30T10:40:02;2.60;;;2.40;;
53899;SDS011;40509;32.858;-116.858;2023-04-30T10:42:30;3.05;;;2.40;;
53899;SDS011;40509;32.858;-116.858;2023-04-30T10:45:01;2.88;;;2.33;;
53899;SDS011;40509;32.858;-116.858;2023-04-30T10:47:29;2.90;;;2.38;;
53899;SDS011;40509;32.858;-116.858;2023-04-30T10:50:03;2.88;;;2.17;;
53899;SDS011;40509;32.858;-116.858;2023-04-30T10:52:34;2.03;;;1.83;;
53899;SDS011;40509;32.858;-116.858;2023-04-30T10:55:04;2.70;;;2.45;;
53899;SDS011;40509;32.858;-116.858;2023-04-30T10:57:41;2.35;;;1.63;;
53899;SDS011;40509;32.858;-116.858;2023-04-30T11:02:43;2.17;;;1.75;;
53899;SDS011;40509;32.858;-116.858;2023-04-30T11:05:16;2.07;;;1.97;;
53899;SDS011;40509;32.858;-116.858;2023-04-30T11:07:45;3.00;;;2.22;;
53899;SDS011;40509;32.858;-116.858;2023-04-30T11:10:20;2.88;;;2.30;;
53899;SDS011;40509;32.858;-116.858;2023-04-30T11:12:50;2.53;;;2.08;;
53899;SDS011;40509;32.858;-116.858;2023-04-30T11:15:19;2.22;;;1.63;;
53899;SDS011;40509;32.858;-116.858;2023-04-30T11:20:19;3.55;;;1.90;;
53899;SDS011;40509;32.858;-116.858;2023-04-30T11:25:41;2.28;;;1.85;;
53899;SDS011;40509;32.858;-116.858;2023-04-30T11:28:13;2.42;;;2.22;;
53899;SDS011;40509;32.858;-116.858;2023-04-30T11:30:51;2.22;;;1.98;;
53899;SDS011;40509;32.858;-116.858;2023-04-30T11:33:18;1.70;;;1.50;;
53899;SDS011;40509;32.858;-116.858;2023-04-30T11:35:47;2.50;;;2.25;;
53899;SDS011;40509;32.858;-116.858;2023-04-30T11:38:19;2.70;;;2.10;;
53899;SDS011;40509;32.858;-116.858;2023-04-30T11:40:53;2.60;;;2.33;;
53899;SDS011;40509;32.858;-116.858;2023-04-30T11:43:22;2.08;;;1.85;;
53899;SDS011;40509;32.858;-116.858;2023-04-30T11:46:12;4.38;;;1.83;;
53899;SDS011;40509;32.858;-116.858;2023-04-30T11:48:44;2.50;;;2.00;;
53899;SDS011;40509;32.858;-116.858;2023-04-30T11:51:16;4.65;;;2.60;;
53899;SDS011;40509;32.858;-116.858;2023-04-30T11:53:45;3.00;;;2.13;;
53899;SDS011;40509;32.858;-116.858;2023-04-30T11:56:21;3.63;;;2.47;;
53899;SDS011;40509;32.858;-116.858;2023-04-30T11:58:50;1.80;;;1.70;;
53899;SDS011;40509;32.858;-116.858;2023-04-30T12:01:20;2.40;;;2.20;;
53899;SDS011;40509;32.858;-116.858;2023-04-30T12:03:49;2.50;;;1.90;;
53899;SDS011;40509;32.858;-116.858;2023-04-30T12:06:26;2.70;;;1.98;;
53899;SDS011;40509;32.858;-116.858;2023-04-30T12:08:58;2.22;;;2.03;;
53899;SDS011;40509;32.858;-116.858;2023-04-30T12:11:27;2.22;;;2.03;;
53899;SDS011;40509;32.858;-116.858;2023-04-30T12:14:05;3.20;;;2.08;;
53899;SDS011;40509;32.858;-116.858;2023-04-30T12:16:40;2.42;;;1.77;;
53899;SDS011;40509;32.858;-116.858;2023-04-30T12:19:16;2.83;;;1.63;;
53899;SDS011;40509;32.858;-116.858;2023-04-30T12:21:44;2.25;;;1.75;;
53899;SDS011;40509;32.858;-116.858;2023-04-30T12:24:14;1.98;;;1.60;;
53899;SDS011;40509;32.858;-116.858;2023-04-30T12:26:42;4.40;;;2.05;;
53899;SDS011;40509;32.858;-116.858;2023-04-30T12:29:13;2.33;;;2.08;;
53899;SDS011;40509;32.858;-116.858;2023-04-30T12:31:42;3.40;;;1.98;;
53899;SDS011;40509;32.858;-116.858;2023-04-30T12:34:12;2.17;;;1.85;;
53899;SDS011;40509;32.858;-116.858;2023-04-30T12:36:40;2.72;;;2.20;;
53899;SDS011;40509;32.858;-116.858;2023-04-30T12:39:09;2.65;;;1.77;;
53899;SDS011;40509;32.858;-116.858;2023-04-30T12:44:22;1.95;;;1.75;;
53899;SDS011;40509;32.858;-116.858;2023-04-30T12:46:53;2.47;;;2.28;;
53899;SDS011;40509;32.858;-116.858;2023-04-30T12:49:23;2.05;;;1.90;;
53899;SDS011;40509;32.858;-116.858;2023-04-30T12:52:01;2.60;;;2.40;;
53899;SDS011;40509;32.858;-116.858;2023-04-30T12:54:33;1.73;;;1.45;;
53899;SDS011;40509;32.858;-116.858;2023-04-30T12:59:30;2.33;;;1.85;;
53899;SDS011;40509;32.858;-116.858;2023-04-30T13:02:06;3.25;;;2.05;;
53899;SDS011;40509;32.858;-116.858;2023-04-30T13:04:34;3.47;;;2.13;;
53899;SDS011;40509;32.858;-116.858;2023-04-30T13:07:02;1.73;;;1.45;;
53899;SDS011;40509;32.858;-116.858;2023-04-30T13:09:31;4.18;;;2.15;;
53899;SDS011;40509;32.858;-116.858;2023-04-30T13:11:59;1.73;;;1.60;;
53899;SDS011;40509;32.858;-116.858;2023-04-30T13:14:27;2.65;;;2.00;;
53899;SDS011;40509;32.858;-116.858;2023-04-30T13:16:54;2.90;;;2.65;;
53899;SDS011;40509;32.858;-116.858;2023-04-30T13:19:21;5.68;;;2.42;;
53899;SDS011;40509;32.858;-116.858;2023-04-30T13:21:48;4.13;;;2.30;;
53899;SDS011;40509;32.858;-116.858;2023-04-30T13:24:16;2.92;;;2.15;;
53899;SDS011;40509;32.858;-116.858;2023-04-30T13:26:44;4.43;;;2.35;;
53899;SDS011;40509;32.858;-116.858;2023-04-30T13:29:11;2.35;;;1.92;;
53899;SDS011;40509;32.858;-116.858;2023-04-30T13:31:38;2.72;;;2.10;;
53899;SDS011;40509;32.858;-116.858;2023-04-30T13:34:05;1.90;;;1.73;;
53899;SDS011;40509;32.858;-116.858;2023-04-30T13:36:33;2.08;;;1.80;;
53899;SDS011;40509;32.858;-116.858;2023-04-30T13:39:01;2.95;;;1.95;;
53899;SDS011;40509;32.858;-116.858;2023-04-30T13:41:29;2.55;;;1.92;;
53899;SDS011;40509;32.858;-116.858;2023-04-30T13:43:56;2.30;;;1.92;;
53899;SDS011;40509;32.858;-116.858;2023-04-30T13:46:25;2.85;;;2.47;;
53899;SDS011;40509;32.858;-116.858;2023-04-30T13:48:52;3.20;;;2.17;;
53899;SDS011;40509;32.858;-116.858;2023-04-30T13:51:19;2.25;;;2.08;;
53899;SDS011;40509;32.858;-116.858;2023-04-30T13:53:46;1.98;;;1.83;;
53899;SDS011;40509;32.858;-116.858;2023-04-30T13:56:14;5.10;;;2.47;;
53899;SDS011;40509;32.858;-116.858;2023-04-30T13:58:41;2.30;;;2.10;;
53899;SDS011;40509;32.858;-116.858;2023-04-30T14:01:08;3.60;;;2.13;;
53899;SDS011;40509;32.858;-116.858;2023-04-30T14:03:35;2.28;;;2.00;;
53899;SDS011;40509;32.858;-116.858;2023-04-30T14:06:03;2.05;;;1.83;;
53899;SDS011;40509;32.858;-116.858;2023-04-30T14:08:30;3.78;;;2.15;;
53899;SDS011;40509;32.858;-116.858;2023-04-30T14:10:58;2.63;;;2.13;;
53899;SDS011;40509;32.858;-116.858;2023-04-30T14:13:26;3.13;;;2.25;;
53899;SDS011;40509;32.858;-116.858;2023-04-30T14:15:53;1.90;;;1.77;;
53899;SDS011;40509;32.858;-116.858;2023-04-30T14:18:21;3.28;;;2.03;;
53899;SDS011;40509;32.858;-116.858;2023-04-30T14:20:48;2.10;;;1.98;;
53899;SDS011;40509;32.858;-116.858;2023-04-30T14:23:16;3.35;;;2.08;;
53899;SDS011;40509;32.858;-116.858;2023-04-30T14:25:43;2.25;;;1.88;;
53899;SDS011;40509;32.858;-116.858;2023-04-30T14:28:11;2.70;;;2.15;;
53899;SDS011;40509;32.858;-116.858;2023-04-30T14:30:38;2.47;;;2.22;;
53899;SDS011;40509;32.858;-116.858;2023-04-30T14:33:05;2.53;;;2.03;;
53899;SDS011;40509;32.858;-116.858;2023-04-30T14:35:34;2.65;;;2.20;;
53899;SDS011;40509;32.858;-116.858;2023-04-30T14:38:02;2.75;;;2.53;;
53899;SDS011;40509;32.858;-116.858;2023-04-30T14:40:29;2.25;;;1.98;;
53899;SDS011;40509;32.858;-116.858;2023-04-30T14:42:57;2.45;;;2.25;;